sensor_id;sensor_type;location;lat;lon;timestamp;temperature;humidity
44117;DHT22;29781;49.480;8.512;2023-03-02T00:01:43;2.40;99.90
44117;DHT22;29781;49.480;8.512;2023-03-02T00:04:30;2.50;99.90
44117;DHT22;29781;49.480;8.512;2023-03-02T00:06:57;2.50;99.90
44117;DHT22;29781;49.480;8.512;2023-03-02T00:09:23;2.50;99.90
44117;DHT22;29781;49.480;8.512;2023-03-02T00:11:49;2.50;99.90
44117;DHT22;29781;49.480;8.512;2023-03-02T00:14:15;2.40;99.90
44117;DHT22;29781;49.480;8.512;2023-03-02T00:16:40;2.40;99.90
44117;DHT22;29781;49.480;8.512;2023-03-02T00:19:06;2.40;99.90
44117;DHT22;29781;49.480;8.512;2023-03-02T00:21:31;2.50;99.90
44117;DHT22;29781;49.480;8.512;2023-03-02T00:23:57;2.60;99.90
44117;DHT22;29781;49.480;8.512;2023-03-02T00:26:22;2.60;99.90
44117;DHT22;29781;49.480;8.512;2023-03-02T00:28:48;2.70;99.90
44117;DHT22;29781;49.480;8.512;2023-03-02T00:31:13;2.90;99.90
44117;DHT22;29781;49.480;8.512;2023-03-02T00:33:39;2.90;99.90
44117;DHT22;29781;49.480;8.512;2023-03-02T00:36:04;3.00;99.90
44117;DHT22;29781;49.480;8.512;2023-03-02T00:38:30;3.10;99.90
44117;DHT22;29781;49.480;8.512;2023-03-02T00:40:55;3.00;99.90
44117;DHT22;29781;49.480;8.512;2023-03-02T00:43:21;3.00;99.90
44117;DHT22;29781;49.480;8.512;2023-03-02T00:45:51;3.00;99.90
44117;DHT22;29781;49.480;8.512;2023-03-02T00:48:17;3.00;99.90
44117;DHT22;29781;49.480;8.512;2023-03-02T00:50:42;2.80;99.90
44117;DHT22;29781;49.480;8.512;2023-03-02T00:53:08;2.70;99.90
44117;DHT22;29781;49.480;8.512;2023-03-02T00:55:33;2.60;99.90
44117;DHT22;29781;49.480;8.512;2023-03-02T00:57:59;2.70;99.90
44117;DHT22;29781;49.480;8.512;2023-03-02T01:00:24;2.50;99.90
44117;DHT22;29781;49.480;8.512;2023-03-02T01:02:53;2.50;99.90
44117;DHT22;29781;49.480;8.512;2023-03-02T01:05:18;2.50;99.90
44117;DHT22;29781;49.480;8.512;2023-03-02T01:07:44;2.50;99.90
44117;DHT22;29781;49.480;8.512;2023-03-02T01:10:09;2.70;99.90
44117;DHT22;29781;49.480;8.512;2023-03-02T01:12:35;2.80;99.90
44117;DHT22;29781;49.480;8.512;2023-03-02T01:15:01;2.90;99.90
44117;DHT22;29781;49.480;8.512;2023-03-02T01:17:27;2.90;99.90
44117;DHT22;29781;49.480;8.512;2023-03-02T01:19:53;3.00;99.90
44117;DHT22;29781;49.480;8.512;2023-03-02T01:22:18;2.90;99.90
44117;DHT22;29781;49.480;8.512;2023-03-02T01:24:44;2.90;99.90
44117;DHT22;29781;49.480;8.512;2023-03-02T01:27:10;2.90;99.90
44117;DHT22;29781;49.480;8.512;2023-03-02T01:29:35;2.80;99.90
44117;DHT22;29781;49.480;8.512;2023-03-02T01:32:01;2.80;99.90
44117;DHT22;29781;49.480;8.512;2023-03-02T01:34:26;2.80;99.90
44117;DHT22;29781;49.480;8.512;2023-03-02T01:36:52;2.80;99.90
44117;DHT22;29781;49.480;8.512;2023-03-02T01:39:17;2.70;99.90
44117;DHT22;29781;49.480;8.512;2023-03-02T01:44:52;2.60;99.90
44117;DHT22;29781;49.480;8.512;2023-03-02T01:47:25;2.70;99.90
44117;DHT22;29781;49.480;8.512;2023-03-02T01:49:52;2.70;99.90
44117;DHT22;29781;49.480;8.512;2023-03-02T01:52:20;2.60;99.90
44117;DHT22;29781;49.480;8.512;2023-03-02T01:54:46;2.60;99.90
44117;DHT22;29781;49.480;8.512;2023-03-02T01:57:14;2.50;99.90
44117;DHT22;29781;49.480;8.512;2023-03-02T01:59:40;2.50;99.90
44117;DHT22;29781;49.480;8.512;2023-03-02T02:02:07;2.50;99.90
44117;DHT22;29781;49.480;8.512;2023-03-02T02:04:33;2.50;99.90
44117;DHT22;29781;49.480;8.512;2023-03-02T02:07:03;2.30;99.90
44117;DHT22;29781;49.480;8.512;2023-03-02T02:09:29;2.20;99.90
44117;DHT22;29781;49.480;8.512;2023-03-02T02:11:55;2.10;99.90
44117;DHT22;29781;49.480;8.512;2023-03-02T02:14:21;1.90;99.90
44117;DHT22;29781;49.480;8.512;2023-03-02T02:16:46;1.90;99.90
44117;DHT22;29781;49.480;8.512;2023-03-02T02:19:30;1.80;99.90
44117;DHT22;29781;49.480;8.512;2023-03-02T02:21:58;1.90;99.90
44117;DHT22;29781;49.480;8.512;2023-03-02T02:24:25;1.80;99.90
44117;DHT22;29781;49.480;8.512;2023-03-02T02:26:51;1.90;99.90
44117;DHT22;29781;49.480;8.512;2023-03-02T02:29:32;1.90;99.90
44117;DHT22;29781;49.480;8.512;2023-03-02T02:32:02;1.90;99.90
44117;DHT22;29781;49.480;8.512;2023-03-02T02:37:06;2.00;99.90
44117;DHT22;29781;49.480;8.512;2023-03-02T02:39:34;2.00;99.90
44117;DHT22;29781;49.480;8.512;2023-03-02T02:42:02;1.90;99.90
44117;DHT22;29781;49.480;8.512;2023-03-02T02:44:28;1.70;99.90
44117;DHT22;29781;49.480;8.512;2023-03-02T02:46:54;1.70;99.90
44117;DHT22;29781;49.480;8.512;2023-03-02T02:49:35;1.50;99.90
44117;DHT22;29781;49.480;8.512;2023-03-02T02:52:03;1.50;99.90
44117;DHT22;29781;49.480;8.512;2023-03-02T02:54:29;1.30;99.90
44117;DHT22;29781;49.480;8.512;2023-03-02T02:56:55;1.20;99.90
44117;DHT22;29781;49.480;8.512;2023-03-02T02:59:22;1.20;99.90
44117;DHT22;29781;49.480;8.512;2023-03-02T03:01:49;1.20;99.90
44117;DHT22;29781;49.480;8.512;2023-03-02T03:04:19;1.20;99.90
44117;DHT22;29781;49.480;8.512;2023-03-02T03:06:52;1.30;99.90
44117;DHT22;29781;49.480;8.512;2023-03-02T03:09:17;1.20;99.90
44117;DHT22;29781;49.480;8.512;2023-03-02T03:11:44;1.10;99.90
44117;DHT22;29781;49.480;8.512;2023-03-02T03:16:36;1.10;99.90
44117;DHT22;29781;49.480;8.512;2023-03-02T03:19:47;1.00;99.90
44117;DHT22;29781;49.480;8.512;2023-03-02T03:21:48;1.10;99.90
44117;DHT22;29781;49.480;8.512;2023-03-02T03:24:15;1.00;99.90
44117;DHT22;29781;49.480;8.512;2023-03-02T03:26:40;1.00;99.90
44117;DHT22;29781;49.480;8.512;2023-03-02T03:29:06;1.00;99.90
44117;DHT22;29781;49.480;8.512;2023-03-02T03:31:31;1.00;99.90
44117;DHT22;29781;49.480;8.512;2023-03-02T03:33:57;1.10;99.90
44117;DHT22;29781;49.480;8.512;2023-03-02T03:36:29;1.00;99.90
44117;DHT22;29781;49.480;8.512;2023-03-02T03:38:55;1.10;99.90
44117;DHT22;29781;49.480;8.512;2023-03-02T03:41:20;1.10;99.90
44117;DHT22;29781;49.480;8.512;2023-03-02T03:43:46;1.00;99.90
44117;DHT22;29781;49.480;8.512;2023-03-02T03:46:11;1.00;99.90
44117;DHT22;29781;49.480;8.512;2023-03-02T03:48:36;0.90;99.90
44117;DHT22;29781;49.480;8.512;2023-03-02T03:51:02;1.00;99.90
44117;DHT22;29781;49.480;8.512;2023-03-02T03:53:28;1.00;99.90
44117;DHT22;29781;49.480;8.512;2023-03-02T03:55:53;1.10;99.90
44117;DHT22;29781;49.480;8.512;2023-03-02T03:58:21;1.10;99.90
44117;DHT22;29781;49.480;8.512;2023-03-02T04:00:46;1.00;99.90
44117;DHT22;29781;49.480;8.512;2023-03-02T04:03:13;1.00;99.90
44117;DHT22;29781;49.480;8.512;2023-03-02T04:05:38;1.00;99.90
44117;DHT22;29781;49.480;8.512;2023-03-02T04:08:04;0.90;99.90
44117;DHT22;29781;49.480;8.512;2023-03-02T04:10:30;0.90;99.90
44117;DHT22;29781;49.480;8.512;2023-03-02T04:12:55;1.00;99.90
44117;DHT22;29781;49.480;8.512;2023-03-02T04:15:21;1.00;99.90
44117;DHT22;29781;49.480;8.512;2023-03-02T04:17:46;0.90;99.90
44117;DHT22;29781;49.480;8.512;2023-03-02T04:20:12;0.90;99.90
44117;DHT22;29781;49.480;8.512;2023-03-02T04:22:44;0.80;99.90
44117;DHT22;29781;49.480;8.512;2023-03-02T04:25:10;0.80;99.90
44117;DHT22;29781;49.480;8.512;2023-03-02T04:27:37;0.70;99.90
44117;DHT22;29781;49.480;8.512;2023-03-02T04:30:02;0.60;99.90
44117;DHT22;29781;49.480;8.512;2023-03-02T04:32:28;0.60;99.90
44117;DHT22;29781;49.480;8.512;2023-03-02T04:34:53;0.60;99.90
44117;DHT22;29781;49.480;8.512;2023-03-02T04:37:19;0.50;99.90
44117;DHT22;29781;49.480;8.512;2023-03-02T04:39:44;0.50;99.90
44117;DHT22;29781;49.480;8.512;2023-03-02T04:42:14;0.40;99.90
44117;DHT22;29781;49.480;8.512;2023-03-02T04:44:39;0.60;99.90
44117;DHT22;29781;49.480;8.512;2023-03-02T04:47:05;0.60;99.90
44117;DHT22;29781;49.480;8.512;2023-03-02T04:49:30;0.40;99.90
44117;DHT22;29781;49.480;8.512;2023-03-02T04:51:56;0.40;99.90
44117;DHT22;29781;49.480;8.512;2023-03-02T04:54:22;0.50;99.90
44117;DHT22;29781;49.480;8.512;2023-03-02T04:56:48;0.50;99.90
44117;DHT22;29781;49.480;8.512;2023-03-02T04:59:14;0.50;99.90
44117;DHT22;29781;49.480;8.512;2023-03-02T05:01:40;0.50;99.90
44117;DHT22;29781;49.480;8.512;2023-03-02T05:04:05;0.40;99.90
44117;DHT22;29781;49.480;8.512;2023-03-02T05:06:31;0.50;99.90
44117;DHT22;29781;49.480;8.512;2023-03-02T05:08:56;0.50;99.90
44117;DHT22;29781;49.480;8.512;2023-03-02T05:11:24;0.60;99.90
44117;DHT22;29781;49.480;8.512;2023-03-02T05:13:50;0.60;99.90
44117;DHT22;29781;49.480;8.512;2023-03-02T05:16:16;0.60;99.90
44117;DHT22;29781;49.480;8.512;2023-03-02T05:18:42;0.70;99.90
44117;DHT22;29781;49.480;8.512;2023-03-02T05:21:07;0.60;99.90
44117;DHT22;29781;49.480;8.512;2023-03-02T05:23:33;0.60;99.90
44117;DHT22;29781;49.480;8.512;2023-03-02T05:25:58;0.70;99.90
44117;DHT22;29781;49.480;8.512;2023-03-02T05:28:25;0.60;99.90
44117;DHT22;29781;49.480;8.512;2023-03-02T05:30:50;0.60;99.90
44117;DHT22;29781;49.480;8.512;2023-03-02T05:33:16;0.40;99.90
44117;DHT22;29781;49.480;8.512;2023-03-02T05:35:42;0.30;99.90
44117;DHT22;29781;49.480;8.512;2023-03-02T05:38:07;0.30;99.90
44117;DHT22;29781;49.480;8.512;2023-03-02T05:40:33;0.30;99.90
44117;DHT22;29781;49.480;8.512;2023-03-02T05:42:59;0.30;99.90
44117;DHT22;29781;49.480;8.512;2023-03-02T05:45:32;0.20;99.90
44117;DHT22;29781;49.480;8.512;2023-03-02T05:47:58;0.30;99.90
44117;DHT22;29781;49.480;8.512;2023-03-02T05:50:23;0.30;99.90
44117;DHT22;29781;49.480;8.512;2023-03-02T05:52:49;0.40;99.90
44117;DHT22;29781;49.480;8.512;2023-03-02T05:55:14;0.40;99.90
44117;DHT22;29781;49.480;8.512;2023-03-02T05:57:40;0.50;99.90
44117;DHT22;29781;49.480;8.512;2023-03-02T06:00:06;0.50;99.90
44117;DHT22;29781;49.480;8.512;2023-03-02T06:02:32;0.50;99.90
44117;DHT22;29781;49.480;8.512;2023-03-02T06:04:58;0.40;99.90
44117;DHT22;29781;49.480;8.512;2023-03-02T06:07:23;0.50;99.90
44117;DHT22;29781;49.480;8.512;2023-03-02T06:09:49;0.50;99.90
44117;DHT22;29781;49.480;8.512;2023-03-02T06:12:15;0.60;99.90
44117;DHT22;29781;49.480;8.512;2023-03-02T06:14:42;0.60;99.90
44117;DHT22;29781;49.480;8.512;2023-03-02T06:17:07;0.60;99.90
44117;DHT22;29781;49.480;8.512;2023-03-02T06:19:33;0.40;99.90
44117;DHT22;29781;49.480;8.512;2023-03-02T06:21:58;0.40;99.90
44117;DHT22;29781;49.480;8.512;2023-03-02T06:24:23;0.40;99.90
44117;DHT22;29781;49.480;8.512;2023-03-02T06:26:49;0.60;99.90
44117;DHT22;29781;49.480;8.512;2023-03-02T06:29:16;0.80;99.90
44117;DHT22;29781;49.480;8.512;2023-03-02T06:31:42;0.80;99.90
44117;DHT22;29781;49.480;8.512;2023-03-02T06:34:07;0.90;99.90
44117;DHT22;29781;49.480;8.512;2023-03-02T06:36:32;1.00;99.90
44117;DHT22;29781;49.480;8.512;2023-03-02T06:38:58;1.20;99.90
44117;DHT22;29781;49.480;8.512;2023-03-02T06:41:23;1.40;99.90
44117;DHT22;29781;49.480;8.512;2023-03-02T06:43:49;1.50;99.90
44117;DHT22;29781;49.480;8.512;2023-03-02T06:46:15;1.60;99.90
44117;DHT22;29781;49.480;8.512;2023-03-02T06:48:40;1.70;99.90
44117;DHT22;29781;49.480;8.512;2023-03-02T06:51:06;1.70;99.90
44117;DHT22;29781;49.480;8.512;2023-03-02T06:53:32;1.60;99.90
44117;DHT22;29781;49.480;8.512;2023-03-02T06:55:57;1.50;99.90
44117;DHT22;29781;49.480;8.512;2023-03-02T06:58:22;1.60;99.90
44117;DHT22;29781;49.480;8.512;2023-03-02T07:00:48;1.30;99.90
44117;DHT22;29781;49.480;8.512;2023-03-02T07:03:13;1.60;99.90
44117;DHT22;29781;49.480;8.512;2023-03-02T07:05:39;1.80;99.90
44117;DHT22;29781;49.480;8.512;2023-03-02T07:08:04;2.00;99.90
44117;DHT22;29781;49.480;8.512;2023-03-02T07:10:30;2.10;99.90
44117;DHT22;29781;49.480;8.512;2023-03-02T07:12:55;2.20;99.90
44117;DHT22;29781;49.480;8.512;2023-03-02T07:15:21;2.20;99.90
44117;DHT22;29781;49.480;8.512;2023-03-02T07:17:46;2.30;99.90
44117;DHT22;29781;49.480;8.512;2023-03-02T07:20:13;2.40;99.90
44117;DHT22;29781;49.480;8.512;2023-03-02T07:22:39;2.50;99.90
44117;DHT22;29781;49.480;8.512;2023-03-02T07:25:05;2.50;99.90
44117;DHT22;29781;49.480;8.512;2023-03-02T07:27:30;2.50;99.90
44117;DHT22;29781;49.480;8.512;2023-03-02T07:29:56;2.60;99.90
44117;DHT22;29781;49.480;8.512;2023-03-02T07:32:21;2.70;99.90
44117;DHT22;29781;49.480;8.512;2023-03-02T07:34:47;2.60;99.90
44117;DHT22;29781;49.480;8.512;2023-03-02T07:37:12;2.80;99.90
44117;DHT22;29781;49.480;8.512;2023-03-02T07:39:38;2.80;99.90
44117;DHT22;29781;49.480;8.512;2023-03-02T07:42:03;2.70;99.90
44117;DHT22;29781;49.480;8.512;2023-03-02T07:44:31;2.60;99.90
44117;DHT22;29781;49.480;8.512;2023-03-02T07:46:56;2.70;99.90
44117;DHT22;29781;49.480;8.512;2023-03-02T07:49:22;2.80;99.90
44117;DHT22;29781;49.480;8.512;2023-03-02T07:51:48;2.70;99.90
44117;DHT22;29781;49.480;8.512;2023-03-02T07:54:13;2.80;99.90
44117;DHT22;29781;49.480;8.512;2023-03-02T07:56:39;2.80;99.90
44117;DHT22;29781;49.480;8.512;2023-03-02T07:59:04;2.80;99.90
44117;DHT22;29781;49.480;8.512;2023-03-02T08:01:30;2.90;99.90
44117;DHT22;29781;49.480;8.512;2023-03-02T08:03:55;3.00;99.90
44117;DHT22;29781;49.480;8.512;2023-03-02T08:06:21;3.10;99.90
44117;DHT22;29781;49.480;8.512;2023-03-02T08:08:46;3.20;99.90
44117;DHT22;29781;49.480;8.512;2023-03-02T08:11:14;3.30;99.90
44117;DHT22;29781;49.480;8.512;2023-03-02T08:13:39;3.40;99.90
44117;DHT22;29781;49.480;8.512;2023-03-02T08:16:06;3.60;99.90
44117;DHT22;29781;49.480;8.512;2023-03-02T08:18:32;3.80;99.90
44117;DHT22;29781;49.480;8.512;2023-03-02T08:20:58;4.00;99.90
44117;DHT22;29781;49.480;8.512;2023-03-02T08:23:24;4.10;99.90
44117;DHT22;29781;49.480;8.512;2023-03-02T08:25:50;4.10;99.90
44117;DHT22;29781;49.480;8.512;2023-03-02T08:28:16;4.50;99.90
44117;DHT22;29781;49.480;8.512;2023-03-02T08:30:41;4.70;99.90
44117;DHT22;29781;49.480;8.512;2023-03-02T08:33:07;4.90;99.90
44117;DHT22;29781;49.480;8.512;2023-03-02T08:35:32;5.10;99.90
44117;DHT22;29781;49.480;8.512;2023-03-02T08:37:58;5.10;99.90
44117;DHT22;29781;49.480;8.512;2023-03-02T08:40:24;5.30;99.90
44117;DHT22;29781;49.480;8.512;2023-03-02T08:42:49;5.30;99.90
44117;DHT22;29781;49.480;8.512;2023-03-02T08:45:24;5.70;99.90
44117;DHT22;29781;49.480;8.512;2023-03-02T08:47:51;5.80;99.90
44117;DHT22;29781;49.480;8.512;2023-03-02T08:50:16;5.90;99.90
44117;DHT22;29781;49.480;8.512;2023-03-02T08:52:42;6.20;99.90
44117;DHT22;29781;49.480;8.512;2023-03-02T08:55:08;6.10;99.90
44117;DHT22;29781;49.480;8.512;2023-03-02T08:57:33;6.00;99.90
44117;DHT22;29781;49.480;8.512;2023-03-02T08:59:59;6.10;99.90
44117;DHT22;29781;49.480;8.512;2023-03-02T09:02:24;5.90;99.90
44117;DHT22;29781;49.480;8.512;2023-03-02T09:04:50;6.00;99.90
44117;DHT22;29781;49.480;8.512;2023-03-02T09:07:15;6.20;99.90
44117;DHT22;29781;49.480;8.512;2023-03-02T09:09:41;6.10;99.90
44117;DHT22;29781;49.480;8.512;2023-03-02T09:12:07;7.20;99.90
44117;DHT22;29781;49.480;8.512;2023-03-02T09:14:32;7.80;99.90
44117;DHT22;29781;49.480;8.512;2023-03-02T09:16:58;8.50;99.90
44117;DHT22;29781;49.480;8.512;2023-03-02T09:19:23;7.10;99.90
44117;DHT22;29781;49.480;8.512;2023-03-02T09:21:49;7.00;99.90
44117;DHT22;29781;49.480;8.512;2023-03-02T09:24:14;6.60;99.90
44117;DHT22;29781;49.480;8.512;2023-03-02T09:26:40;6.40;99.90
44117;DHT22;29781;49.480;8.512;2023-03-02T09:29:05;6.10;99.90
44117;DHT22;29781;49.480;8.512;2023-03-02T09:31:31;6.20;99.90
44117;DHT22;29781;49.480;8.512;2023-03-02T09:33:57;6.60;99.90
44117;DHT22;29781;49.480;8.512;2023-03-02T09:36:23;6.20;99.90
44117;DHT22;29781;49.480;8.512;2023-03-02T09:38:49;6.50;99.90
44117;DHT22;29781;49.480;8.512;2023-03-02T09:48:58;8.00;99.90
44117;DHT22;29781;49.480;8.512;2023-03-02T09:51:30;8.50;99.90
44117;DHT22;29781;49.480;8.512;2023-03-02T09:56:22;7.30;99.90
44117;DHT22;29781;49.480;8.512;2023-03-02T09:58:53;7.20;99.90
44117;DHT22;29781;49.480;8.512;2023-03-02T10:01:24;7.20;99.90
44117;DHT22;29781;49.480;8.512;2023-03-02T10:03:53;7.50;99.90
44117;DHT22;29781;49.480;8.512;2023-03-02T10:06:20;7.60;99.90
44117;DHT22;29781;49.480;8.512;2023-03-02T10:08:45;7.00;99.90
44117;DHT22;29781;49.480;8.512;2023-03-02T10:11:36;7.50;99.90
44117;DHT22;29781;49.480;8.512;2023-03-02T10:14:12;7.40;99.90
44117;DHT22;29781;49.480;8.512;2023-03-02T10:19:24;7.90;99.90
44117;DHT22;29781;49.480;8.512;2023-03-02T10:22:14;8.30;99.90
44117;DHT22;29781;49.480;8.512;2023-03-02T10:24:49;7.90;99.90
44117;DHT22;29781;49.480;8.512;2023-03-02T10:28:16;8.10;99.90
44117;DHT22;29781;49.480;8.512;2023-03-02T10:30:18;8.00;99.90
44117;DHT22;29781;49.480;8.512;2023-03-02T10:32:47;8.50;99.90
44117;DHT22;29781;49.480;8.512;2023-03-02T10:35:15;8.90;99.90
44117;DHT22;29781;49.480;8.512;2023-03-02T10:37:40;9.80;99.90
44117;DHT22;29781;49.480;8.512;2023-03-02T10:40:10;10.90;99.90
44117;DHT22;29781;49.480;8.512;2023-03-02T10:42:36;9.20;99.90
44117;DHT22;29781;49.480;8.512;2023-03-02T10:48:02;8.60;99.90
44117;DHT22;29781;49.480;8.512;2023-03-02T10:50:28;8.80;99.90
44117;DHT22;29781;49.480;8.512;2023-03-02T10:52:54;9.40;99.90
44117;DHT22;29781;49.480;8.512;2023-03-02T10:55:20;10.30;99.90
44117;DHT22;29781;49.480;8.512;2023-03-02T10:57:55;10.80;99.90
44117;DHT22;29781;49.480;8.512;2023-03-02T11:00:27;10.20;99.90
44117;DHT22;29781;49.480;8.512;2023-03-02T11:02:53;9.50;99.90
44117;DHT22;29781;49.480;8.512;2023-03-02T11:07:51;10.30;99.90
44117;DHT22;29781;49.480;8.512;2023-03-02T11:10:19;10.40;99.90
44117;DHT22;29781;49.480;8.512;2023-03-02T11:12:45;10.30;99.90
44117;DHT22;29781;49.480;8.512;2023-03-02T11:15:13;10.70;99.90
44117;DHT22;29781;49.480;8.512;2023-03-02T11:17:40;11.10;99.90
44117;DHT22;29781;49.480;8.512;2023-03-02T11:20:12;10.80;99.90
44117;DHT22;29781;49.480;8.512;2023-03-02T11:22:40;10.30;99.90
44117;DHT22;29781;49.480;8.512;2023-03-02T11:25:11;9.50;99.90
44117;DHT22;29781;49.480;8.512;2023-03-02T11:27:40;9.60;99.90
44117;DHT22;29781;49.480;8.512;2023-03-02T11:30:11;10.10;99.90
44117;DHT22;29781;49.480;8.512;2023-03-02T11:32:48;10.20;99.90
44117;DHT22;29781;49.480;8.512;2023-03-02T11:37:47;9.60;99.90
44117;DHT22;29781;49.480;8.512;2023-03-02T11:42:50;11.80;99.90
44117;DHT22;29781;49.480;8.512;2023-03-02T11:45:17;11.50;99.90
44117;DHT22;29781;49.480;8.512;2023-03-02T11:47:51;11.20;99.90
44117;DHT22;29781;49.480;8.512;2023-03-02T11:50:17;11.80;99.90
44117;DHT22;29781;49.480;8.512;2023-03-02T11:52:48;10.90;99.90
44117;DHT22;29781;49.480;8.512;2023-03-02T11:55:16;10.40;99.90
44117;DHT22;29781;49.480;8.512;2023-03-02T11:57:46;11.10;99.90
44117;DHT22;29781;49.480;8.512;2023-03-02T12:00:32;10.80;99.90
44117;DHT22;29781;49.480;8.512;2023-03-02T12:03:00;10.50;99.90
44117;DHT22;29781;49.480;8.512;2023-03-02T12:05:27;11.20;99.90
44117;DHT22;29781;49.480;8.512;2023-03-02T12:07:59;11.20;99.90
44117;DHT22;29781;49.480;8.512;2023-03-02T12:13:14;10.90;99.90
44117;DHT22;29781;49.480;8.512;2023-03-02T12:15:42;12.50;99.90
44117;DHT22;29781;49.480;8.512;2023-03-02T12:21:05;10.90;99.90
44117;DHT22;29781;49.480;8.512;2023-03-02T12:23:52;10.50;99.90
44117;DHT22;29781;49.480;8.512;2023-03-02T12:28:55;11.40;99.90
44117;DHT22;29781;49.480;8.512;2023-03-02T12:31:20;11.70;99.90
44117;DHT22;29781;49.480;8.512;2023-03-02T12:33:47;11.90;99.90
44117;DHT22;29781;49.480;8.512;2023-03-02T12:36:18;12.60;99.90
44117;DHT22;29781;49.480;8.512;2023-03-02T12:38:49;14.20;99.90
44117;DHT22;29781;49.480;8.512;2023-03-02T12:44:18;12.90;99.90
44117;DHT22;29781;49.480;8.512;2023-03-02T12:46:46;12.30;99.90
44117;DHT22;29781;49.480;8.512;2023-03-02T12:51:57;11.20;99.90
44117;DHT22;29781;49.480;8.512;2023-03-02T12:54:23;10.80;99.90
44117;DHT22;29781;49.480;8.512;2023-03-02T12:57:00;10.90;99.90
44117;DHT22;29781;49.480;8.512;2023-03-02T12:59:26;11.00;99.90
44117;DHT22;29781;49.480;8.512;2023-03-02T13:02:02;10.80;99.90
44117;DHT22;29781;49.480;8.512;2023-03-02T13:04:28;10.50;99.90
44117;DHT22;29781;49.480;8.512;2023-03-02T13:06:53;10.70;99.90
44117;DHT22;29781;49.480;8.512;2023-03-02T13:09:19;10.60;99.90
44117;DHT22;29781;49.480;8.512;2023-03-02T13:11:45;10.50;99.90
44117;DHT22;29781;49.480;8.512;2023-03-02T13:14:16;10.60;99.90
44117;DHT22;29781;49.480;8.512;2023-03-02T13:16:51;10.70;99.90
44117;DHT22;29781;49.480;8.512;2023-03-02T13:19:17;11.20;99.90
44117;DHT22;29781;49.480;8.512;2023-03-02T13:21:43;11.20;99.90
44117;DHT22;29781;49.480;8.512;2023-03-02T13:24:23;11.50;99.90
44117;DHT22;29781;49.480;8.512;2023-03-02T13:26:56;11.40;99.90
44117;DHT22;29781;49.480;8.512;2023-03-02T13:29:24;11.30;99.90
44117;DHT22;29781;49.480;8.512;2023-03-02T13:31:50;11.40;99.90
44117;DHT22;29781;49.480;8.512;2023-03-02T13:34:23;11.40;99.90
44117;DHT22;29781;49.480;8.512;2023-03-02T13:36:49;11.50;99.90
44117;DHT22;29781;49.480;8.512;2023-03-02T13:39:19;11.50;99.90
44117;DHT22;29781;49.480;8.512;2023-03-02T13:41:55;11.70;99.90
44117;DHT22;29781;49.480;8.512;2023-03-02T13:44:25;11.70;99.90
44117;DHT22;29781;49.480;8.512;2023-03-02T13:46:51;11.80;99.90
44117;DHT22;29781;49.480;8.512;2023-03-02T13:52:01;11.60;99.90
44117;DHT22;29781;49.480;8.512;2023-03-02T13:54:28;11.50;99.90
44117;DHT22;29781;49.480;8.512;2023-03-02T13:56:55;11.60;99.90
44117;DHT22;29781;49.480;8.512;2023-03-02T13:59:22;11.60;99.90
44117;DHT22;29781;49.480;8.512;2023-03-02T14:01:48;11.50;99.90
44117;DHT22;29781;49.480;8.512;2023-03-02T14:04:14;11.60;99.90
44117;DHT22;29781;49.480;8.512;2023-03-02T14:06:45;11.70;99.90
44117;DHT22;29781;49.480;8.512;2023-03-02T14:09:11;11.60;99.90
44117;DHT22;29781;49.480;8.512;2023-03-02T14:11:37;11.70;99.90
44117;DHT22;29781;49.480;8.512;2023-03-02T14:14:04;11.60;99.90
44117;DHT22;29781;49.480;8.512;2023-03-02T14:16:30;11.60;99.90
44117;DHT22;29781;49.480;8.512;2023-03-02T14:18:58;11.60;99.90
44117;DHT22;29781;49.480;8.512;2023-03-02T14:21:24;11.70;99.90
44117;DHT22;29781;49.480;8.512;2023-03-02T14:23:50;11.70;99.90
44117;DHT22;29781;49.480;8.512;2023-03-02T14:28:58;11.70;99.90
44117;DHT22;29781;49.480;8.512;2023-03-02T14:31:23;11.80;99.90
44117;DHT22;29781;49.480;8.512;2023-03-02T14:33:52;11.80;99.90
44117;DHT22;29781;49.480;8.512;2023-03-02T14:36:18;11.70;99.90
44117;DHT22;29781;49.480;8.512;2023-03-02T14:38:45;11.70;99.90
44117;DHT22;29781;49.480;8.512;2023-03-02T14:41:15;11.80;99.90
44117;DHT22;29781;49.480;8.512;2023-03-02T14:43:43;11.70;99.90
44117;DHT22;29781;49.480;8.512;2023-03-02T14:46:08;11.90;99.90
44117;DHT22;29781;49.480;8.512;2023-03-02T14:48:33;11.80;99.90
44117;DHT22;29781;49.480;8.512;2023-03-02T14:50:59;11.80;99.90
44117;DHT22;29781;49.480;8.512;2023-03-02T14:53:28;11.80;99.90
44117;DHT22;29781;49.480;8.512;2023-03-02T14:55:55;11.80;99.90
44117;DHT22;29781;49.480;8.512;2023-03-02T14:58:25;11.70;99.90
44117;DHT22;29781;49.480;8.512;2023-03-02T15:00:51;11.60;99.90
44117;DHT22;29781;49.480;8.512;2023-03-02T15:03:17;11.60;99.90
44117;DHT22;29781;49.480;8.512;2023-03-02T15:05:51;11.60;99.90
44117;DHT22;29781;49.480;8.512;2023-03-02T15:08:20;11.60;99.90
44117;DHT22;29781;49.480;8.512;2023-03-02T15:10:46;11.60;99.90
44117;DHT22;29781;49.480;8.512;2023-03-02T15:13:12;11.70;99.90
44117;DHT22;29781;49.480;8.512;2023-03-02T15:15:38;11.80;99.90
44117;DHT22;29781;49.480;8.512;2023-03-02T15:18:04;11.80;99.90
44117;DHT22;29781;49.480;8.512;2023-03-02T15:20:29;11.70;99.90
44117;DHT22;29781;49.480;8.512;2023-03-02T15:22:55;11.80;99.90
44117;DHT22;29781;49.480;8.512;2023-03-02T15:25:20;11.70;99.90
44117;DHT22;29781;49.480;8.512;2023-03-02T15:27:48;11.70;99.90
44117;DHT22;29781;49.480;8.512;2023-03-02T15:30:14;11.60;99.90
44117;DHT22;29781;49.480;8.512;2023-03-02T15:32:39;11.60;99.90
44117;DHT22;29781;49.480;8.512;2023-03-02T15:35:05;11.60;99.90
44117;DHT22;29781;49.480;8.512;2023-03-02T15:37:30;11.70;99.90
44117;DHT22;29781;49.480;8.512;2023-03-02T15:39:56;11.60;99.90
44117;DHT22;29781;49.480;8.512;2023-03-02T15:42:22;11.80;99.90
44117;DHT22;29781;49.480;8.512;2023-03-02T15:44:47;11.70;99.90
44117;DHT22;29781;49.480;8.512;2023-03-02T15:47:13;11.60;99.90
44117;DHT22;29781;49.480;8.512;2023-03-02T15:49:39;11.60;99.90
44117;DHT22;29781;49.480;8.512;2023-03-02T15:52:04;11.20;99.90
44117;DHT22;29781;49.480;8.512;2023-03-02T15:54:30;11.60;99.90
44117;DHT22;29781;49.480;8.512;2023-03-02T15:56:55;11.60;99.90
44117;DHT22;29781;49.480;8.512;2023-03-02T15:59:22;11.60;99.90
44117;DHT22;29781;49.480;8.512;2023-03-02T16:01:47;11.50;99.90
44117;DHT22;29781;49.480;8.512;2023-03-02T16:04:13;11.50;99.90
44117;DHT22;29781;49.480;8.512;2023-03-02T16:06:38;11.50;99.90
44117;DHT22;29781;49.480;8.512;2023-03-02T16:09:04;11.50;99.90
44117;DHT22;29781;49.480;8.512;2023-03-02T16:11:31;11.40;99.90
44117;DHT22;29781;49.480;8.512;2023-03-02T16:13:57;11.40;99.90
44117;DHT22;29781;49.480;8.512;2023-03-02T16:16:22;11.40;99.90
44117;DHT22;29781;49.480;8.512;2023-03-02T16:18:48;11.40;99.90
44117;DHT22;29781;49.480;8.512;2023-03-02T16:21:14;11.30;99.90
44117;DHT22;29781;49.480;8.512;2023-03-02T16:23:39;11.30;99.90
44117;DHT22;29781;49.480;8.512;2023-03-02T16:26:09;11.30;99.90
44117;DHT22;29781;49.480;8.512;2023-03-02T16:28:34;11.20;99.90
44117;DHT22;29781;49.480;8.512;2023-03-02T16:31:08;11.20;99.90